createdAt,value
2023-01-13T00:00:01.883Z,100325.50
2023-01-13T00:02:29.448Z,100324.94
2023-01-13T00:04:56.472Z,100326.94
2023-01-13T00:07:23.343Z,100319.53
2023-01-13T00:09:50.282Z,100331.84
2023-01-13T00:12:17.139Z,100335.66
2023-01-13T00:14:44.013Z,100317.59
2023-01-13T00:17:10.884Z,100318.25
2023-01-13T00:19:37.804Z,100310.06
2023-01-13T00:22:04.702Z,100314.41
2023-01-13T00:24:31.605Z,100309.34
2023-01-13T00:26:58.484Z,100298.25
2023-01-13T00:29:25.364Z,100296.75
2023-01-13T00:31:52.466Z,100289.13
2023-01-13T00:34:19.329Z,100286.75
2023-01-13T00:36:46.228Z,100290.22
2023-01-13T00:39:13.271Z,100288.56
2023-01-13T00:41:58.585Z,100282.66
2023-01-13T00:44:25.400Z,100276.75
2023-01-13T00:46:52.325Z,100278.69
2023-01-13T00:49:19.206Z,100273.31
2023-01-13T00:51:46.033Z,100272.34
2023-01-13T00:54:12.947Z,100272.06
2023-01-13T00:56:41.324Z,100272.72
2023-01-13T00:59:10.812Z,100270.47
2023-01-13T01:01:37.921Z,100251.13
2023-01-13T01:04:05.055Z,100247.59
2023-01-13T01:06:31.929Z,100247.88
2023-01-13T01:08:58.809Z,100251.56
2023-01-13T01:11:27.663Z,100243.50
2023-01-13T01:13:55.576Z,100243.66
2023-01-13T01:16:24.126Z,100226.81
2023-01-13T01:18:51.620Z,100235.34
2023-01-13T01:21:18.744Z,100230.69
2023-01-13T01:23:45.770Z,100232.47
2023-01-13T01:26:31.342Z,100229.59
2023-01-13T01:28:58.566Z,100238.22
2023-01-13T01:31:27.192Z,100230.00
2023-01-13T01:33:54.664Z,100219.19
2023-01-13T01:36:22.347Z,100213.66
2023-01-13T01:38:49.527Z,100199.81
2023-01-13T01:41:21.378Z,100195.00
2023-01-13T01:43:59.549Z,100203.91
2023-01-13T01:46:27.259Z,100194.16
2023-01-13T01:48:54.739Z,100201.03
2023-01-13T01:51:21.671Z,100195.13
2023-01-13T01:53:48.767Z,100189.09
2023-01-13T01:56:16.509Z,100179.63
2023-01-13T01:58:47.646Z,100184.44
2023-01-13T02:01:14.710Z,100174.81
2023-01-13T02:03:44.466Z,100170.41
2023-01-13T02:06:11.371Z,100175.78
2023-01-13T02:08:39.272Z,100171.38
2023-01-13T02:11:06.161Z,100171.94
2023-01-13T02:13:32.981Z,100176.59
2023-01-13T02:16:04.227Z,100172.22
2023-01-13T02:18:39.502Z,100172.75
2023-01-13T02:21:21.359Z,100166.72
2023-01-13T02:24:45.985Z,100162.75
2023-01-13T02:27:50.484Z,100165.91
2023-01-13T02:31:20.875Z,100147.66
2023-01-13T02:34:24.935Z,100151.22
2023-01-13T02:37:03.808Z,100142.56
2023-01-13T02:39:34.502Z,100135.69
2023-01-13T02:42:41.567Z,100140.78
2023-01-13T02:45:34.623Z,100135.56
2023-01-13T02:48:01.855Z,100133.25
2023-01-13T02:50:44.683Z,100122.94
2023-01-13T02:53:25.401Z,100126.09
2023-01-13T02:55:53.344Z,100124.44
2023-01-13T02:58:24.367Z,100117.31
2023-01-13T03:00:52.170Z,100125.97
2023-01-13T03:03:19.232Z,100112.09
2023-01-13T03:05:47.440Z,100118.81
2023-01-13T03:08:39.587Z,100120.75
2023-01-13T03:11:10.498Z,100112.09
2023-01-13T03:13:55.796Z,100112.66
2023-01-13T03:16:41.215Z,100107.44
2023-01-13T03:19:15.792Z,100111.66
2023-01-13T03:21:50.806Z,100108.09
2023-01-13T03:24:20.930Z,100098.75
2023-01-13T03:26:53.819Z,100096.31
2023-01-13T03:29:27.981Z,100108.91
2023-01-13T03:32:00.023Z,100097.94
2023-01-13T03:34:33.061Z,100096.03
2023-01-13T03:37:00.894Z,100098.34
2023-01-13T03:39:31.376Z,100090.28
2023-01-13T03:42:00.153Z,100094.41
2023-01-13T03:44:35.676Z,100094.06
2023-01-13T03:47:13.374Z,100096.41
2023-01-13T03:49:53.613Z,100086.41
2023-01-13T03:52:34.105Z,100087.22
2023-01-13T03:55:26.623Z,100086.56
2023-01-13T03:58:00.282Z,100084.63
2023-01-13T04:00:31.437Z,100091.34
2023-01-13T04:03:22.279Z,100089.56
2023-01-13T04:05:51.673Z,100076.13
2023-01-13T04:08:21.415Z,100078.44
2023-01-13T04:10:52.894Z,100074.34
2023-01-13T04:13:21.978Z,100073.22
2023-01-13T04:15:48.903Z,100080.63
2023-01-13T04:18:20.965Z,100088.31
2023-01-13T04:20:49.038Z,100070.31
2023-01-13T04:23:16.834Z,100071.16
2023-01-13T04:25:43.875Z,100064.16
2023-01-13T04:28:10.895Z,100063.31
2023-01-13T04:30:38.054Z,100062.50
2023-01-13T04:33:05.563Z,100064.53
2023-01-13T04:35:33.042Z,100063.03
2023-01-13T04:38:10.476Z,100061.25
2023-01-13T04:40:37.274Z,100061.41
2023-01-13T04:43:04.101Z,100065.53
2023-01-13T04:45:31.118Z,100058.78
2023-01-13T04:47:57.913Z,100072.22
2023-01-13T04:50:24.763Z,100052.59
2023-01-13T04:52:51.935Z,100076.03
2023-01-13T04:55:19.128Z,100069.03
2023-01-13T04:57:45.895Z,100071.28
2023-01-13T05:00:14.176Z,100059.84
2023-01-13T05:02:41.066Z,100060.69
2023-01-13T05:05:08.418Z,100066.13
2023-01-13T05:07:35.214Z,100056.28
2023-01-13T05:10:02.134Z,100070.53
2023-01-13T05:12:47.290Z,100066.97
2023-01-13T05:15:33.106Z,100055.72
2023-01-13T05:18:00.415Z,100050.78
2023-01-13T05:20:27.276Z,100054.72
2023-01-13T05:23:12.457Z,100070.91
2023-01-13T05:25:40.512Z,100061.09
2023-01-13T05:28:07.838Z,100071.22
2023-01-13T05:30:46.177Z,100072.41
2023-01-13T05:33:14.519Z,100075.03
2023-01-13T05:35:42.037Z,100078.16
2023-01-13T05:38:09.019Z,100075.72
2023-01-13T05:40:54.636Z,100075.56
2023-01-13T05:43:22.073Z,100077.19
2023-01-13T05:46:09.546Z,100084.38
2023-01-13T05:48:40.891Z,100073.00
2023-01-13T05:51:08.881Z,100081.94
2023-01-13T05:53:35.774Z,100082.22
2023-01-13T05:56:07.021Z,100089.09
2023-01-13T05:58:33.901Z,100084.44
2023-01-13T06:01:02.251Z,100094.59
2023-01-13T06:03:29.085Z,100085.25
2023-01-13T06:05:59.336Z,100088.44
2023-01-13T06:08:26.286Z,100092.50
2023-01-13T06:10:53.225Z,100107.75
2023-01-13T06:13:20.046Z,100101.16
2023-01-13T06:15:46.959Z,100108.69
2023-01-13T06:18:13.836Z,100115.69
2023-01-13T06:20:40.633Z,100123.09
2023-01-13T06:23:09.378Z,100120.63
2023-01-13T06:26:04.088Z,100123.94
2023-01-13T06:28:30.880Z,100124.88
2023-01-13T06:31:00.260Z,100129.00
2023-01-13T06:33:30.147Z,100112.00
2023-01-13T06:36:04.303Z,100128.03
2023-01-13T06:38:31.868Z,100119.00
2023-01-13T06:40:58.724Z,100130.78
2023-01-13T06:43:25.481Z,100123.63
2023-01-13T06:45:53.498Z,100129.00
2023-01-13T06:48:22.338Z,100123.63
2023-01-13T06:50:49.146Z,100141.75
2023-01-13T06:53:15.944Z,100136.00
2023-01-13T06:55:42.743Z,100133.94
2023-01-13T06:58:09.517Z,100134.47
2023-01-13T07:00:37.369Z,100124.31
2023-01-13T07:03:14.741Z,100140.22
2023-01-13T07:05:43.594Z,100132.25
2023-01-13T07:08:10.716Z,100139.94
2023-01-13T07:10:37.660Z,100135.00
2023-01-13T07:13:23.304Z,100128.69
2023-01-13T07:16:01.000Z,100131.13
2023-01-13T07:18:31.539Z,100135.25
2023-01-13T07:21:00.093Z,100142.78
2023-01-13T07:23:35.036Z,100145.69
2023-01-13T07:26:01.876Z,100148.16
2023-01-13T07:28:29.383Z,100140.31
2023-01-13T07:30:56.458Z,100151.00
2023-01-13T07:33:23.304Z,100151.28
2023-01-13T07:35:56.417Z,100160.63
2023-01-13T07:38:23.229Z,100161.59
2023-01-13T07:40:49.998Z,100165.84
2023-01-13T07:43:35.300Z,100166.53
2023-01-13T07:46:04.806Z,100162.50
2023-01-13T07:48:33.042Z,100153.84
2023-01-13T07:51:06.981Z,100171.94
2023-01-13T07:53:33.843Z,100162.47
2023-01-13T07:56:00.830Z,100161.19
2023-01-13T07:58:27.946Z,100145.81
2023-01-13T08:00:55.174Z,100163.75
2023-01-13T08:03:22.676Z,100156.91
2023-01-13T08:05:49.549Z,100164.28
2023-01-13T08:08:16.404Z,100173.03
2023-01-13T08:10:43.219Z,100169.47
2023-01-13T08:13:23.178Z,100173.78
2023-01-13T08:15:52.147Z,100162.06
2023-01-13T08:18:22.330Z,100174.41
2023-01-13T08:20:49.881Z,100162.69
2023-01-13T08:23:16.931Z,100167.47
2023-01-13T08:25:43.765Z,100169.19
2023-01-13T08:28:10.755Z,100175.47
2023-01-13T08:30:37.715Z,100160.31
2023-01-13T08:33:07.416Z,100167.47
2023-01-13T08:35:36.180Z,100156.50
2023-01-13T08:38:03.057Z,100166.81
2023-01-13T08:40:29.943Z,100170.66
2023-01-13T08:42:57.261Z,100159.84
2023-01-13T08:45:24.131Z,100157.75
2023-01-13T08:47:50.999Z,100181.34
2023-01-13T08:50:17.940Z,100175.19
2023-01-13T08:52:44.945Z,100179.13
2023-01-13T08:55:11.922Z,100192.41
2023-01-13T08:57:38.838Z,100196.66
2023-01-13T09:00:07.241Z,100197.34
2023-01-13T09:02:34.175Z,100201.72
2023-01-13T09:05:03.775Z,100201.03
2023-01-13T09:07:31.217Z,100207.66
2023-01-13T09:09:58.160Z,100212.81
2023-01-13T09:12:43.260Z,100202.56
2023-01-13T09:15:10.724Z,100205.59
2023-01-13T09:17:37.565Z,100208.41
2023-01-13T09:20:05.380Z,100207.16
2023-01-13T09:22:32.332Z,100209.13
2023-01-13T09:24:59.157Z,100202.47
2023-01-13T09:27:26.027Z,100203.78
2023-01-13T09:29:52.909Z,100201.78
2023-01-13T09:32:19.739Z,100207.53
2023-01-13T09:35:04.700Z,100216.53
2023-01-13T09:37:34.363Z,100215.50
2023-01-13T09:40:02.242Z,100215.31
2023-01-13T09:43:04.782Z,100218.06
2023-01-13T09:45:37.938Z,100216.91
2023-01-13T09:48:18.238Z,100209.13
2023-01-13T09:51:17.609Z,100210.53
2023-01-13T09:53:52.356Z,100216.25
2023-01-13T09:56:19.201Z,100218.19
2023-01-13T09:58:46.004Z,100211.69
2023-01-13T10:01:46.542Z,100203.22
2023-01-13T10:04:14.988Z,100203.94
2023-01-13T10:06:43.414Z,100214.53
2023-01-13T10:09:39.925Z,100215.09
2023-01-13T10:12:27.581Z,100207.63
2023-01-13T10:14:57.468Z,100199.97
2023-01-13T10:17:47.610Z,100209.06
2023-01-13T10:20:37.123Z,100208.78
2023-01-13T10:23:10.002Z,100213.28
2023-01-13T10:26:14.003Z,100213.09
2023-01-13T10:28:40.855Z,100206.09
2023-01-13T10:31:12.111Z,100202.97
2023-01-13T10:33:39.006Z,100204.66
2023-01-13T10:36:21.544Z,100212.84
2023-01-13T10:38:49.777Z,100207.44
2023-01-13T10:41:16.556Z,100207.44
2023-01-13T10:43:44.165Z,100208.16
2023-01-13T10:46:12.609Z,100193.25
2023-01-13T10:48:44.386Z,100182.75
2023-01-13T10:51:20.223Z,100182.53
2023-01-13T10:54:13.205Z,100180.81
2023-01-13T10:56:44.848Z,100180.63
2023-01-13T10:59:30.174Z,100175.41
2023-01-13T11:02:24.901Z,100175.72
2023-01-13T11:04:55.366Z,100169.97
2023-01-13T11:07:35.062Z,100158.88
2023-01-13T11:10:27.591Z,100158.69
2023-01-13T11:13:16.735Z,100161.97
2023-01-13T11:15:54.007Z,100171.56
2023-01-13T11:19:16.864Z,100174.72
2023-01-13T11:21:46.857Z,100161.06
2023-01-13T11:24:37.902Z,100158.59
2023-01-13T11:27:27.802Z,100161.31
2023-01-13T11:30:45.937Z,100172.66
2023-01-13T11:33:15.380Z,100180.09
2023-01-13T11:35:57.854Z,100168.91
2023-01-13T11:38:33.623Z,100178.38
2023-01-13T11:41:41.180Z,100178.50
2023-01-13T11:44:29.856Z,100192.63
2023-01-13T11:46:56.717Z,100199.44
2023-01-13T11:49:28.433Z,100192.72
2023-01-13T11:51:59.881Z,100184.94
2023-01-13T11:54:31.105Z,100173.81
2023-01-13T11:57:10.679Z,100170.13
2023-01-13T12:00:03.490Z,100189.38
2023-01-13T12:02:30.326Z,100195.25
2023-01-13T12:05:23.799Z,100192.22
2023-01-13T12:08:03.818Z,100208.00
2023-01-13T12:10:56.925Z,100205.47
2023-01-13T12:13:42.244Z,100208.69
2023-01-13T12:16:19.304Z,100209.41
2023-01-13T12:18:55.003Z,100200.84
2023-01-13T12:21:41.024Z,100188.91
2023-01-13T12:24:17.916Z,100194.25
2023-01-13T12:27:14.111Z,100183.75
2023-01-13T12:29:40.968Z,100183.81
2023-01-13T12:32:21.185Z,100169.38
2023-01-13T12:34:59.570Z,100199.34
2023-01-13T12:37:52.120Z,100211.94
2023-01-13T12:40:47.094Z,100215.91
2023-01-13T12:43:39.920Z,100210.53
2023-01-13T12:46:18.838Z,100204.50
2023-01-13T12:48:46.641Z,100200.09
2023-01-13T12:51:37.708Z,100191.44
2023-01-13T12:54:45.158Z,100187.34
2023-01-13T12:57:22.427Z,100189.47
2023-01-13T13:00:07.965Z,100210.28
2023-01-13T13:02:38.153Z,100213.25
2023-01-13T13:05:28.061Z,100205.22
2023-01-13T13:08:22.945Z,100211.44
2023-01-13T13:11:39.626Z,100203.22
2023-01-13T13:14:10.909Z,100206.84
2023-01-13T13:16:49.349Z,100188.44
2023-01-13T13:19:20.157Z,100190.72
2023-01-13T13:22:24.061Z,100197.09
2023-01-13T13:24:59.616Z,100209.66
2023-01-13T13:27:38.603Z,100213.41
2023-01-13T13:30:28.358Z,100223.19
2023-01-13T13:33:16.915Z,100203.31
2023-01-13T13:36:02.905Z,100204.13
2023-01-13T13:39:20.040Z,100211.56
2023-01-13T13:42:06.380Z,100180.22
2023-01-13T13:44:54.726Z,100207.41
2023-01-13T13:47:21.618Z,100214.06
2023-01-13T13:49:53.079Z,100225.13
2023-01-13T13:52:26.340Z,100218.88
2023-01-13T13:54:55.437Z,100208.22
2023-01-13T13:57:38.648Z,100208.16
2023-01-13T14:00:24.180Z,100213.47
2023-01-13T14:03:00.515Z,100217.22
2023-01-13T14:05:29.201Z,100224.56
2023-01-13T14:08:00.885Z,100239.44
2023-01-13T14:10:35.855Z,100228.53
2023-01-13T14:13:12.976Z,100258.63
2023-01-13T14:15:41.123Z,100261.31
2023-01-13T14:18:16.005Z,100247.41
2023-01-13T14:20:43.089Z,100235.19
2023-01-13T14:23:16.986Z,100238.56
2023-01-13T14:25:50.956Z,100251.41
2023-01-13T14:28:20.991Z,100259.97
2023-01-13T14:30:47.967Z,100259.38
2023-01-13T14:33:17.401Z,100257.78
2023-01-13T14:36:15.187Z,100275.81
2023-01-13T14:38:42.954Z,100262.03
2023-01-13T14:41:28.430Z,100270.69
2023-01-13T14:43:57.644Z,100275.66
2023-01-13T14:46:25.694Z,100284.72
2023-01-13T14:48:54.006Z,100273.66
2023-01-13T14:51:23.478Z,100282.75
2023-01-13T14:53:50.352Z,100280.25
2023-01-13T14:56:39.023Z,100280.41
2023-01-13T14:59:43.688Z,100260.91
2023-01-13T15:02:34.705Z,100269.00
2023-01-13T15:05:20.059Z,100285.25
2023-01-13T15:08:14.144Z,100294.19
2023-01-13T15:10:47.383Z,100310.94
2023-01-13T15:13:39.141Z,100303.53
2023-01-13T15:16:14.809Z,100292.00
2023-01-13T15:18:41.708Z,100295.03
2023-01-13T15:21:09.563Z,100296.13
2023-01-13T15:23:36.690Z,100303.25
2023-01-13T15:26:04.000Z,100303.00
2023-01-13T15:28:32.011Z,100293.09
2023-01-13T15:31:01.813Z,100287.50
2023-01-13T15:33:28.682Z,100288.31
2023-01-13T15:35:55.664Z,100302.88
2023-01-13T15:38:23.263Z,100295.03
2023-01-13T15:40:50.862Z,100287.22
2023-01-13T15:43:42.582Z,100298.91
2023-01-13T15:46:38.987Z,100283.63
2023-01-13T15:49:34.975Z,100283.38
2023-01-13T15:52:03.738Z,100273.63
2023-01-13T15:54:30.818Z,100286.94
2023-01-13T15:56:57.750Z,100294.78
2023-01-13T15:59:26.315Z,100280.22
2023-01-13T16:01:53.121Z,100281.19
2023-01-13T16:04:19.941Z,100285.44
2023-01-13T16:06:47.693Z,100283.53
2023-01-13T16:09:14.985Z,100267.59
2023-01-13T16:11:41.778Z,100305.88
2023-01-13T16:14:08.601Z,100326.47
2023-01-13T16:16:35.934Z,100328.41
2023-01-13T16:19:02.777Z,100322.47
2023-01-13T16:21:29.622Z,100321.94
2023-01-13T16:23:56.414Z,100325.50
2023-01-13T16:26:25.451Z,100323.44
2023-01-13T16:28:53.409Z,100324.25
2023-01-13T16:31:33.465Z,100319.75
2023-01-13T16:34:01.471Z,100323.03
2023-01-13T16:36:29.535Z,100339.22
2023-01-13T16:38:56.974Z,100332.63
2023-01-13T16:41:25.118Z,100322.34
2023-01-13T16:43:52.040Z,100331.09
2023-01-13T16:46:29.126Z,100324.66
2023-01-13T16:48:57.348Z,100331.25
2023-01-13T16:51:24.358Z,100338.25
2023-01-13T16:53:51.274Z,100331.91
2023-01-13T16:56:29.830Z,100353.16
2023-01-13T16:58:58.349Z,100336.50
2023-01-13T17:01:33.058Z,100329.44
2023-01-13T17:04:00.224Z,100345.97
2023-01-13T17:06:37.509Z,100347.25
2023-01-13T17:09:11.475Z,100343.72
2023-01-13T17:11:38.376Z,100334.16
2023-01-13T17:14:19.044Z,100339.28
2023-01-13T17:16:46.932Z,100344.53
2023-01-13T17:19:13.842Z,100350.25
2023-01-13T17:21:40.720Z,100356.88
2023-01-13T17:24:08.119Z,100349.38
2023-01-13T17:26:49.417Z,100363.44
2023-01-13T17:29:22.225Z,100355.53
2023-01-13T17:31:52.401Z,100360.88
2023-01-13T17:34:19.457Z,100364.19
2023-01-13T17:36:46.183Z,100360.88
2023-01-13T17:39:21.217Z,100372.09
2023-01-13T17:41:47.991Z,100377.53
2023-01-13T17:44:15.573Z,100374.31
2023-01-13T17:46:43.087Z,100371.19
2023-01-13T17:49:13.862Z,100363.72
2023-01-13T17:51:40.697Z,100376.31
2023-01-13T17:54:12.441Z,100382.06
2023-01-13T17:56:40.227Z,100382.13
2023-01-13T17:59:09.441Z,100388.66
2023-01-13T18:01:37.099Z,100391.19
2023-01-13T18:04:03.940Z,100378.88
2023-01-13T18:06:30.782Z,100375.63
2023-01-13T18:08:58.938Z,100377.16
2023-01-13T18:11:26.136Z,100378.13
2023-01-13T18:13:57.240Z,100384.72
2023-01-13T18:16:24.874Z,100381.66
2023-01-13T18:18:53.657Z,100384.47
2023-01-13T18:22:03.973Z,100384.66
2023-01-13T18:24:49.337Z,100381.09
2023-01-13T18:27:19.264Z,100387.31
2023-01-13T18:29:46.576Z,100393.63
2023-01-13T18:32:13.486Z,100385.88
2023-01-13T18:34:40.317Z,100378.94
2023-01-13T18:37:07.748Z,100390.63
2023-01-13T18:39:37.363Z,100393.25
2023-01-13T18:42:26.195Z,100381.69
2023-01-13T18:44:53.461Z,100389.72
2023-01-13T18:47:20.250Z,100385.00
2023-01-13T18:49:47.032Z,100391.03
2023-01-13T18:52:13.889Z,100396.13
2023-01-13T18:54:40.760Z,100387.16
2023-01-13T18:57:07.519Z,100390.00
2023-01-13T18:59:34.958Z,100405.44
2023-01-13T19:02:02.655Z,100403.81
2023-01-13T19:04:29.580Z,100403.34
2023-01-13T19:07:00.999Z,100412.19
2023-01-13T19:09:29.289Z,100404.63
2023-01-13T19:11:56.813Z,100400.75
2023-01-13T19:14:37.371Z,100401.09
2023-01-13T19:17:11.609Z,100407.47
2023-01-13T19:19:43.610Z,100416.44
2023-01-13T19:22:11.438Z,100423.28
2023-01-13T19:24:41.990Z,100424.00
2023-01-13T19:27:12.481Z,100413.63
2023-01-13T19:29:43.069Z,100417.28
2023-01-13T19:32:18.019Z,100414.78
2023-01-13T19:34:46.713Z,100412.06
2023-01-13T19:37:13.630Z,100406.38
2023-01-13T19:39:40.458Z,100411.72
2023-01-13T19:42:25.632Z,100420.91
2023-01-13T19:45:10.786Z,100416.78
2023-01-13T19:47:38.910Z,100422.81
2023-01-13T19:50:09.436Z,100409.56
2023-01-13T19:52:36.208Z,100423.16
2023-01-13T19:55:03.096Z,100414.66
2023-01-13T19:57:29.915Z,100405.09
2023-01-13T19:59:56.840Z,100415.00
2023-01-13T20:02:31.594Z,100409.34
2023-01-13T20:05:00.094Z,100404.38
2023-01-13T20:07:28.791Z,100413.13
2023-01-13T20:09:58.545Z,100416.91
2023-01-13T20:12:25.809Z,100416.41
2023-01-13T20:14:52.693Z,100425.00
2023-01-13T20:17:20.863Z,100424.41
2023-01-13T20:19:47.752Z,100422.53
2023-01-13T20:22:14.677Z,100422.75
2023-01-13T20:24:41.473Z,100422.63
2023-01-13T20:27:08.314Z,100421.56
2023-01-13T20:29:35.154Z,100424.53
2023-01-13T20:32:02.135Z,100423.81
2023-01-13T20:34:28.981Z,100424.88
2023-01-13T20:36:55.856Z,100431.72
2023-01-13T20:39:25.573Z,100423.94
2023-01-13T20:42:11.039Z,100436.19
2023-01-13T20:44:37.857Z,100429.56
2023-01-13T20:47:04.835Z,100434.75
2023-01-13T20:49:31.778Z,100433.56
2023-01-13T20:51:58.862Z,100437.09
2023-01-13T20:54:25.855Z,100440.41
2023-01-13T20:56:52.662Z,100424.34
2023-01-13T20:59:19.597Z,100432.75
2023-01-13T21:01:46.504Z,100427.78
2023-01-13T21:04:13.388Z,100429.66
2023-01-13T21:06:41.625Z,100437.56
2023-01-13T21:09:09.034Z,100433.31
2023-01-13T21:11:54.239Z,100436.94
2023-01-13T21:14:41.058Z,100434.69
2023-01-13T21:17:28.599Z,100440.59
2023-01-13T21:19:55.683Z,100443.09
2023-01-13T21:22:22.593Z,100438.13
2023-01-13T21:24:49.403Z,100441.75
2023-01-13T21:27:16.339Z,100440.13
2023-01-13T21:29:44.633Z,100440.44
2023-01-13T21:32:11.554Z,100434.97
2023-01-13T21:34:38.444Z,100429.19
2023-01-13T21:37:05.243Z,100440.06
2023-01-13T21:39:32.194Z,100436.28
2023-01-13T21:42:17.719Z,100447.72
2023-01-13T21:45:02.923Z,100456.34
2023-01-13T21:47:48.182Z,100448.13
2023-01-13T21:50:23.398Z,100457.66
2023-01-13T21:52:52.332Z,100465.91
2023-01-13T21:55:33.005Z,100454.13
2023-01-13T21:58:13.697Z,100460.13
2023-01-13T22:00:41.673Z,100454.34
2023-01-13T22:03:09.354Z,100456.34
2023-01-13T22:05:36.302Z,100450.44
2023-01-13T22:08:03.343Z,100453.66
2023-01-13T22:10:30.623Z,100449.06
2023-01-13T22:12:59.111Z,100452.97
2023-01-13T22:15:27.397Z,100459.03
2023-01-13T22:17:54.697Z,100439.31
2023-01-13T22:20:21.701Z,100461.31
2023-01-13T22:22:48.719Z,100462.16
2023-01-13T22:25:16.115Z,100460.66
2023-01-13T22:27:44.520Z,100444.25
2023-01-13T22:30:18.265Z,100453.72
2023-01-13T22:32:45.740Z,100453.97
2023-01-13T22:35:13.658Z,100442.66
2023-01-13T22:37:40.752Z,100460.09
2023-01-13T22:40:08.890Z,100459.88
2023-01-13T22:42:42.481Z,100443.59
2023-01-13T22:45:12.884Z,100444.28
2023-01-13T22:47:39.766Z,100446.06
2023-01-13T22:50:10.003Z,100454.31
2023-01-13T22:52:36.913Z,100461.41
2023-01-13T22:55:04.230Z,100455.97
2023-01-13T22:57:35.954Z,100445.94
2023-01-13T23:00:04.450Z,100459.50
2023-01-13T23:02:34.551Z,100457.38
2023-01-13T23:05:01.930Z,100457.34
2023-01-13T23:07:28.768Z,100453.09
2023-01-13T23:09:55.549Z,100454.38
2023-01-13T23:12:22.340Z,100467.47
2023-01-13T23:14:49.138Z,100466.28
2023-01-13T23:17:15.910Z,100466.50
2023-01-13T23:19:42.695Z,100469.91
2023-01-13T23:22:09.686Z,100461.66
2023-01-13T23:24:36.452Z,100463.31
2023-01-13T23:27:03.344Z,100458.78
2023-01-13T23:29:30.364Z,100455.28
2023-01-13T23:31:57.130Z,100452.53
2023-01-13T23:34:23.955Z,100455.28
2023-01-13T23:36:50.754Z,100453.84
2023-01-13T23:39:17.547Z,100445.69
2023-01-13T23:41:44.337Z,100457.88
2023-01-13T23:44:11.127Z,100453.59
2023-01-13T23:46:37.959Z,100449.69
2023-01-13T23:49:04.784Z,100442.97
2023-01-13T23:51:31.810Z,100455.50
2023-01-13T23:53:59.234Z,100452.16
2023-01-13T23:56:28.292Z,100457.03
2023-01-13T23:58:55.230Z,100467.03
